Terminal Aerodrome Forecast
Issued by NWS

Home | Current Version | Previous Version | Text Only | Print | Product List | Glossary On
Versions: 1 2 3 4 5 6 7 8 9 10 11 12 13 14 15 16 17 18 19 20
918
FTUS46 KSEW 262321
TAFBLI
TAF
KBLI 262321Z 2700/2724 14010KT P6SM SCT030 OVC045
      TEMPO 2700/2703 -RA OVC030
     FM270300 16012KT P6SM -SHRA BKN030 OVC050
     FM270600 17010KT P6SM VCSH BKN035 BKN050
     FM271200 16010KT P6SM -SHRA BKN030 BKN045
     FM272100 17010KT P6SM VCSH SCT035 BKN050=

USA.gov is the U.S. government's official web portal to all federal, state and local government web resources and services.